Briefing drone pour Bourgtheroulde-infreville

Rechercher une autre localisation

Conditions de vol :


Nous sommes le : Vendredi 14 mai 2021
Il est 05:06 UTC (07:06 LT)

Lever de soleil : 03:47 UTC (05:47 LT)
Coucher de soleil : 19:57 UTC (21:57 LT)

Météo

L'essentiel des conditions de vol

VIGILANCE MÉTÉO FRANCE - Eure (27)
Pas de vigilances particulieres
CARTE TEMSI
CARTES DES FRONTS
METAR de LFOP
LFOP 140500Z AUTO 18006KT 9999 -RADZ OVC007 08/07 Q1006

Date d'émission: 14/05/2021
Heure d'émission: 05:00 UTC
Vent: 180° pour 6 KT (11 km/h)
Visibilité horizontale: > 10 km
Plafond :
- Couvert à 700ft (213m)
Température: 8 °C
Point de rosée: 7 °C
Humidité: 93%
Pression (QNH): 1006 hPa
TAF de LFOP
LFOP 132001Z 1320/1418 CNL

Conditions prévues :

Heure d'émission : Bulletin éffectué le 13 à 20:00 UTC
Prévision : Valide du 13 a 20:00 UTC au 14 a 18:00 UTC
Nuages : à 0ft (0 m)
WEBCAM POUR BOURGTHEROULDE-INFREVILLE

Réglementation

Voler en sécurité

CARTES AERONAUTIQUE 1/500.000
CARTES VAC (LFOP)
SUP AIP




Chargement des AIP...
NOTAM (BOURGTHEROULDE-INFREVILLE + Terrain à proximité / FIR )




Chargement des NOTAMS...
CONTACT PREFECTURE 27


Avertissement : Les données mises à disposition sont indicatives. Oxygène Drone ne pourra être tenu responsable de dégâts causés aux biens et aux personnes.